sensor_id;sensor_type;location;lat;lon;timestamp;temperature;humidity
73572;DHT22;61854;48.510;-2.770;2022-12-10T00:01:52;2.00;93.80
73572;DHT22;61854;48.510;-2.770;2022-12-10T00:04:19;1.90;93.80
73572;DHT22;61854;48.510;-2.770;2022-12-10T00:06:46;1.90;94.00
73572;DHT22;61854;48.510;-2.770;2022-12-10T00:09:14;1.90;94.10
73572;DHT22;61854;48.510;-2.770;2022-12-10T00:11:41;2.00;94.10
73572;DHT22;61854;48.510;-2.770;2022-12-10T00:14:07;2.00;94.00
73572;DHT22;61854;48.510;-2.770;2022-12-10T00:16:33;2.00;93.80
73572;DHT22;61854;48.510;-2.770;2022-12-10T00:18:59;2.00;93.70
73572;DHT22;61854;48.510;-2.770;2022-12-10T00:21:31;2.00;93.60
73572;DHT22;61854;48.510;-2.770;2022-12-10T00:23:58;2.00;93.60
73572;DHT22;61854;48.510;-2.770;2022-12-10T00:26:33;1.90;93.60
73572;DHT22;61854;48.510;-2.770;2022-12-10T00:29:00;1.90;93.60
73572;DHT22;61854;48.510;-2.770;2022-12-10T00:31:29;1.90;93.60
73572;DHT22;61854;48.510;-2.770;2022-12-10T00:34:00;1.80;93.60
73572;DHT22;61854;48.510;-2.770;2022-12-10T00:36:42;1.90;93.60
73572;DHT22;61854;48.510;-2.770;2022-12-10T00:39:08;1.80;93.60
73572;DHT22;61854;48.510;-2.770;2022-12-10T00:41:34;1.80;93.60
73572;DHT22;61854;48.510;-2.770;2022-12-10T00:43:59;1.80;93.60
73572;DHT22;61854;48.510;-2.770;2022-12-10T00:46:26;1.80;93.50
73572;DHT22;61854;48.510;-2.770;2022-12-10T00:48:51;1.80;93.40
73572;DHT22;61854;48.510;-2.770;2022-12-10T00:51:22;1.80;93.50
73572;DHT22;61854;48.510;-2.770;2022-12-10T00:53:50;1.80;93.60
73572;DHT22;61854;48.510;-2.770;2022-12-10T00:56:18;1.80;93.50
73572;DHT22;61854;48.510;-2.770;2022-12-10T00:58:44;1.90;93.50
73572;DHT22;61854;48.510;-2.770;2022-12-10T01:01:22;1.90;93.40
73572;DHT22;61854;48.510;-2.770;2022-12-10T01:03:50;1.90;93.30
73572;DHT22;61854;48.510;-2.770;2022-12-10T01:06:18;1.90;93.20
73572;DHT22;61854;48.510;-2.770;2022-12-10T01:08:45;1.90;93.20
73572;DHT22;61854;48.510;-2.770;2022-12-10T01:11:12;1.90;93.20
73572;DHT22;61854;48.510;-2.770;2022-12-10T01:13:40;1.90;93.10
73572;DHT22;61854;48.510;-2.770;2022-12-10T01:16:07;1.90;93.10
73572;DHT22;61854;48.510;-2.770;2022-12-10T01:18:36;1.90;92.90
73572;DHT22;61854;48.510;-2.770;2022-12-10T01:21:04;2.00;92.90
73572;DHT22;61854;48.510;-2.770;2022-12-10T01:23:34;2.00;92.80
73572;DHT22;61854;48.510;-2.770;2022-12-10T01:26:01;2.10;92.80
73572;DHT22;61854;48.510;-2.770;2022-12-10T01:28:29;2.20;92.70
73572;DHT22;61854;48.510;-2.770;2022-12-10T01:30:55;2.20;92.30
73572;DHT22;61854;48.510;-2.770;2022-12-10T01:33:21;2.40;92.30
73572;DHT22;61854;48.510;-2.770;2022-12-10T01:35:46;2.40;92.10
73572;DHT22;61854;48.510;-2.770;2022-12-10T01:38:12;2.50;92.00
73572;DHT22;61854;48.510;-2.770;2022-12-10T01:40:38;2.50;91.80
73572;DHT22;61854;48.510;-2.770;2022-12-10T01:43:04;2.60;91.30
73572;DHT22;61854;48.510;-2.770;2022-12-10T01:45:30;2.60;91.50
73572;DHT22;61854;48.510;-2.770;2022-12-10T01:47:56;2.70;91.50
73572;DHT22;61854;48.510;-2.770;2022-12-10T01:50:21;2.70;91.70
73572;DHT22;61854;48.510;-2.770;2022-12-10T01:52:47;2.70;91.50
73572;DHT22;61854;48.510;-2.770;2022-12-10T01:55:47;2.80;91.50
73572;DHT22;61854;48.510;-2.770;2022-12-10T01:58:14;2.90;92.00
73572;DHT22;61854;48.510;-2.770;2022-12-10T02:00:50;2.90;91.90
73572;DHT22;61854;48.510;-2.770;2022-12-10T02:03:26;2.90;92.10
73572;DHT22;61854;48.510;-2.770;2022-12-10T02:06:06;3.00;92.20
73572;DHT22;61854;48.510;-2.770;2022-12-10T02:08:46;3.00;92.40
73572;DHT22;61854;48.510;-2.770;2022-12-10T02:11:20;3.00;92.50
73572;DHT22;61854;48.510;-2.770;2022-12-10T02:14:02;3.00;92.60
73572;DHT22;61854;48.510;-2.770;2022-12-10T02:17:05;3.00;92.80
73572;DHT22;61854;48.510;-2.770;2022-12-10T02:20:01;3.00;92.90
73572;DHT22;61854;48.510;-2.770;2022-12-10T02:22:33;3.00;92.90
73572;DHT22;61854;48.510;-2.770;2022-12-10T02:25:01;3.00;92.80
73572;DHT22;61854;48.510;-2.770;2022-12-10T02:27:46;2.90;92.80
73572;DHT22;61854;48.510;-2.770;2022-12-10T02:30:13;2.90;92.90
73572;DHT22;61854;48.510;-2.770;2022-12-10T02:32:41;2.90;92.90
73572;DHT22;61854;48.510;-2.770;2022-12-10T02:35:17;2.90;93.00
73572;DHT22;61854;48.510;-2.770;2022-12-10T02:37:48;2.80;92.90
73572;DHT22;61854;48.510;-2.770;2022-12-10T02:40:22;2.80;92.90
73572;DHT22;61854;48.510;-2.770;2022-12-10T02:42:50;2.70;93.00
73572;DHT22;61854;48.510;-2.770;2022-12-10T02:45:18;2.60;93.00
73572;DHT22;61854;48.510;-2.770;2022-12-10T02:47:44;2.60;93.20
73572;DHT22;61854;48.510;-2.770;2022-12-10T02:50:11;2.50;93.30
73572;DHT22;61854;48.510;-2.770;2022-12-10T02:52:38;2.50;93.60
73572;DHT22;61854;48.510;-2.770;2022-12-10T02:55:11;2.50;93.50
73572;DHT22;61854;48.510;-2.770;2022-12-10T02:57:50;2.50;93.50
73572;DHT22;61854;48.510;-2.770;2022-12-10T03:00:21;2.50;93.50
73572;DHT22;61854;48.510;-2.770;2022-12-10T03:03:10;2.50;93.50
73572;DHT22;61854;48.510;-2.770;2022-12-10T03:06:03;2.40;93.40
73572;DHT22;61854;48.510;-2.770;2022-12-10T03:11:14;2.50;93.50
73572;DHT22;61854;48.510;-2.770;2022-12-10T03:16:20;2.40;93.30
73572;DHT22;61854;48.510;-2.770;2022-12-10T03:18:50;2.40;93.30
73572;DHT22;61854;48.510;-2.770;2022-12-10T03:21:18;2.40;93.20
73572;DHT22;61854;48.510;-2.770;2022-12-10T03:23:46;2.30;93.20
73572;DHT22;61854;48.510;-2.770;2022-12-10T03:26:13;2.30;93.20
73572;DHT22;61854;48.510;-2.770;2022-12-10T03:28:44;2.30;93.30
73572;DHT22;61854;48.510;-2.770;2022-12-10T03:31:13;2.30;93.20
73572;DHT22;61854;48.510;-2.770;2022-12-10T03:33:40;2.20;93.10
73572;DHT22;61854;48.510;-2.770;2022-12-10T03:36:07;2.20;92.90
73572;DHT22;61854;48.510;-2.770;2022-12-10T03:38:34;2.10;92.80
73572;DHT22;61854;48.510;-2.770;2022-12-10T03:40:59;2.10;92.70
73572;DHT22;61854;48.510;-2.770;2022-12-10T03:43:25;2.00;92.70
73572;DHT22;61854;48.510;-2.770;2022-12-10T03:45:51;1.90;92.70
73572;DHT22;61854;48.510;-2.770;2022-12-10T03:48:16;1.90;92.90
73572;DHT22;61854;48.510;-2.770;2022-12-10T03:50:42;1.80;93.00
73572;DHT22;61854;48.510;-2.770;2022-12-10T03:53:07;1.80;93.00
73572;DHT22;61854;48.510;-2.770;2022-12-10T03:55:33;1.70;92.90
73572;DHT22;61854;48.510;-2.770;2022-12-10T03:57:59;1.70;92.90
73572;DHT22;61854;48.510;-2.770;2022-12-10T04:00:24;1.60;92.90
73572;DHT22;61854;48.510;-2.770;2022-12-10T04:02:50;1.60;92.90
73572;DHT22;61854;48.510;-2.770;2022-12-10T04:05:16;1.60;93.00
73572;DHT22;61854;48.510;-2.770;2022-12-10T04:07:41;1.60;92.90
73572;DHT22;61854;48.510;-2.770;2022-12-10T04:10:07;1.60;92.90
73572;DHT22;61854;48.510;-2.770;2022-12-10T04:12:33;1.60;92.80
73572;DHT22;61854;48.510;-2.770;2022-12-10T04:14:59;1.60;92.70
73572;DHT22;61854;48.510;-2.770;2022-12-10T04:17:43;1.50;92.50
73572;DHT22;61854;48.510;-2.770;2022-12-10T04:20:09;1.50;92.60
73572;DHT22;61854;48.510;-2.770;2022-12-10T04:22:55;1.50;92.50
73572;DHT22;61854;48.510;-2.770;2022-12-10T04:25:39;1.40;92.50
73572;DHT22;61854;48.510;-2.770;2022-12-10T04:28:23;1.40;92.50
73572;DHT22;61854;48.510;-2.770;2022-12-10T04:30:48;1.40;92.50
73572;DHT22;61854;48.510;-2.770;2022-12-10T04:33:14;1.40;92.40
73572;DHT22;61854;48.510;-2.770;2022-12-10T04:35:40;1.40;92.50
73572;DHT22;61854;48.510;-2.770;2022-12-10T04:38:05;1.40;92.30
73572;DHT22;61854;48.510;-2.770;2022-12-10T04:40:31;1.40;92.20
73572;DHT22;61854;48.510;-2.770;2022-12-10T04:42:56;1.40;92.10
73572;DHT22;61854;48.510;-2.770;2022-12-10T04:45:22;1.40;92.10
73572;DHT22;61854;48.510;-2.770;2022-12-10T04:47:47;1.40;92.20
73572;DHT22;61854;48.510;-2.770;2022-12-10T04:50:13;1.40;92.20
73572;DHT22;61854;48.510;-2.770;2022-12-10T04:52:39;1.30;92.30
73572;DHT22;61854;48.510;-2.770;2022-12-10T04:55:04;1.40;92.30
73572;DHT22;61854;48.510;-2.770;2022-12-10T04:57:31;1.40;92.20
73572;DHT22;61854;48.510;-2.770;2022-12-10T04:59:56;1.40;92.20
73572;DHT22;61854;48.510;-2.770;2022-12-10T05:02:22;1.30;92.10
73572;DHT22;61854;48.510;-2.770;2022-12-10T05:04:49;1.40;92.10
73572;DHT22;61854;48.510;-2.770;2022-12-10T05:07:14;1.30;92.10
73572;DHT22;61854;48.510;-2.770;2022-12-10T05:09:40;1.30;91.80
73572;DHT22;61854;48.510;-2.770;2022-12-10T05:12:06;1.30;91.80
73572;DHT22;61854;48.510;-2.770;2022-12-10T05:14:32;1.30;91.80
73572;DHT22;61854;48.510;-2.770;2022-12-10T05:16:57;1.20;91.80
73572;DHT22;61854;48.510;-2.770;2022-12-10T05:19:23;1.20;91.80
73572;DHT22;61854;48.510;-2.770;2022-12-10T05:21:51;1.20;91.90
73572;DHT22;61854;48.510;-2.770;2022-12-10T05:24:37;1.10;91.90
73572;DHT22;61854;48.510;-2.770;2022-12-10T05:27:03;1.10;92.00
73572;DHT22;61854;48.510;-2.770;2022-12-10T05:29:29;1.10;92.00
73572;DHT22;61854;48.510;-2.770;2022-12-10T05:31:54;1.10;92.00
73572;DHT22;61854;48.510;-2.770;2022-12-10T05:34:20;1.20;92.00
73572;DHT22;61854;48.510;-2.770;2022-12-10T05:36:46;1.20;91.90
73572;DHT22;61854;48.510;-2.770;2022-12-10T05:39:11;1.20;91.90
73572;DHT22;61854;48.510;-2.770;2022-12-10T05:41:38;1.30;91.70
73572;DHT22;61854;48.510;-2.770;2022-12-10T05:44:04;1.20;91.60
73572;DHT22;61854;48.510;-2.770;2022-12-10T05:46:32;1.20;91.40
73572;DHT22;61854;48.510;-2.770;2022-12-10T05:49:00;1.20;91.30
73572;DHT22;61854;48.510;-2.770;2022-12-10T05:51:29;1.20;91.30
73572;DHT22;61854;48.510;-2.770;2022-12-10T05:53:55;1.20;91.30
73572;DHT22;61854;48.510;-2.770;2022-12-10T05:56:23;1.20;91.40
73572;DHT22;61854;48.510;-2.770;2022-12-10T05:58:52;1.10;91.30
73572;DHT22;61854;48.510;-2.770;2022-12-10T06:01:27;1.10;91.30
73572;DHT22;61854;48.510;-2.770;2022-12-10T06:03:53;1.10;91.30
73572;DHT22;61854;48.510;-2.770;2022-12-10T06:06:28;1.00;91.30
73572;DHT22;61854;48.510;-2.770;2022-12-10T06:08:54;1.00;91.30
73572;DHT22;61854;48.510;-2.770;2022-12-10T06:11:20;1.00;91.40
73572;DHT22;61854;48.510;-2.770;2022-12-10T06:13:46;1.00;91.40
73572;DHT22;61854;48.510;-2.770;2022-12-10T06:16:13;1.00;91.50
73572;DHT22;61854;48.510;-2.770;2022-12-10T06:18:39;1.00;91.50
73572;DHT22;61854;48.510;-2.770;2022-12-10T06:21:13;1.00;91.60
73572;DHT22;61854;48.510;-2.770;2022-12-10T06:23:40;1.00;91.60
73572;DHT22;61854;48.510;-2.770;2022-12-10T06:26:18;1.00;91.70
73572;DHT22;61854;48.510;-2.770;2022-12-10T06:28:45;1.00;91.60
73572;DHT22;61854;48.510;-2.770;2022-12-10T06:31:11;1.00;91.60
73572;DHT22;61854;48.510;-2.770;2022-12-10T06:33:37;1.10;91.60
73572;DHT22;61854;48.510;-2.770;2022-12-10T06:36:04;1.10;91.50
73572;DHT22;61854;48.510;-2.770;2022-12-10T06:38:31;1.10;91.50
73572;DHT22;61854;48.510;-2.770;2022-12-10T06:40:56;1.10;91.60
73572;DHT22;61854;48.510;-2.770;2022-12-10T06:43:22;1.10;91.70
73572;DHT22;61854;48.510;-2.770;2022-12-10T06:45:47;1.20;91.70
73572;DHT22;61854;48.510;-2.770;2022-12-10T06:48:13;1.20;91.70
73572;DHT22;61854;48.510;-2.770;2022-12-10T06:50:39;1.20;91.60
73572;DHT22;61854;48.510;-2.770;2022-12-10T06:53:04;1.20;91.60
73572;DHT22;61854;48.510;-2.770;2022-12-10T06:55:30;1.20;91.60
73572;DHT22;61854;48.510;-2.770;2022-12-10T06:57:55;1.10;91.60
73572;DHT22;61854;48.510;-2.770;2022-12-10T07:00:21;1.10;91.60
73572;DHT22;61854;48.510;-2.770;2022-12-10T07:02:47;1.10;91.60
73572;DHT22;61854;48.510;-2.770;2022-12-10T07:05:13;1.00;91.60
73572;DHT22;61854;48.510;-2.770;2022-12-10T07:07:39;1.00;91.70
73572;DHT22;61854;48.510;-2.770;2022-12-10T07:10:05;1.00;91.70
73572;DHT22;61854;48.510;-2.770;2022-12-10T07:12:30;1.00;91.70
73572;DHT22;61854;48.510;-2.770;2022-12-10T07:14:56;1.00;91.70
73572;DHT22;61854;48.510;-2.770;2022-12-10T07:17:22;0.90;91.70
73572;DHT22;61854;48.510;-2.770;2022-12-10T07:19:47;0.90;91.70
73572;DHT22;61854;48.510;-2.770;2022-12-10T07:22:13;0.90;91.80
73572;DHT22;61854;48.510;-2.770;2022-12-10T07:24:38;0.90;91.90
73572;DHT22;61854;48.510;-2.770;2022-12-10T07:27:05;0.90;92.00
73572;DHT22;61854;48.510;-2.770;2022-12-10T07:29:31;0.80;92.10
73572;DHT22;61854;48.510;-2.770;2022-12-10T07:31:57;0.80;92.20
73572;DHT22;61854;48.510;-2.770;2022-12-10T07:34:22;0.80;92.30
73572;DHT22;61854;48.510;-2.770;2022-12-10T07:36:48;0.80;92.50
73572;DHT22;61854;48.510;-2.770;2022-12-10T07:39:14;0.80;92.70
73572;DHT22;61854;48.510;-2.770;2022-12-10T07:41:52;0.80;92.80
73572;DHT22;61854;48.510;-2.770;2022-12-10T07:44:19;0.80;92.70
73572;DHT22;61854;48.510;-2.770;2022-12-10T07:46:47;0.80;92.60
73572;DHT22;61854;48.510;-2.770;2022-12-10T07:49:14;0.80;92.50
73572;DHT22;61854;48.510;-2.770;2022-12-10T07:51:43;0.80;92.40
73572;DHT22;61854;48.510;-2.770;2022-12-10T07:54:09;0.80;92.40
73572;DHT22;61854;48.510;-2.770;2022-12-10T07:56:34;0.80;92.40
73572;DHT22;61854;48.510;-2.770;2022-12-10T07:59:00;0.80;92.50
73572;DHT22;61854;48.510;-2.770;2022-12-10T08:01:26;0.80;92.50
73572;DHT22;61854;48.510;-2.770;2022-12-10T08:03:53;0.80;92.60
73572;DHT22;61854;48.510;-2.770;2022-12-10T08:06:20;0.90;92.50
73572;DHT22;61854;48.510;-2.770;2022-12-10T08:08:47;0.90;92.40
73572;DHT22;61854;48.510;-2.770;2022-12-10T08:11:13;0.90;92.20
73572;DHT22;61854;48.510;-2.770;2022-12-10T08:13:40;1.00;92.20
73572;DHT22;61854;48.510;-2.770;2022-12-10T08:16:08;1.00;92.00
73572;DHT22;61854;48.510;-2.770;2022-12-10T08:18:35;1.10;92.00
73572;DHT22;61854;48.510;-2.770;2022-12-10T08:21:09;1.20;91.80
73572;DHT22;61854;48.510;-2.770;2022-12-10T08:23:35;1.20;91.50
73572;DHT22;61854;48.510;-2.770;2022-12-10T08:26:09;1.30;91.40
73572;DHT22;61854;48.510;-2.770;2022-12-10T08:28:36;1.30;91.20
73572;DHT22;61854;48.510;-2.770;2022-12-10T08:31:02;1.30;91.10
73572;DHT22;61854;48.510;-2.770;2022-12-10T08:33:28;1.40;91.10
73572;DHT22;61854;48.510;-2.770;2022-12-10T08:35:57;1.50;91.10
73572;DHT22;61854;48.510;-2.770;2022-12-10T08:38:23;1.60;90.70
73572;DHT22;61854;48.510;-2.770;2022-12-10T08:40:49;1.70;90.50
73572;DHT22;61854;48.510;-2.770;2022-12-10T08:43:15;1.70;90.40
73572;DHT22;61854;48.510;-2.770;2022-12-10T08:45:40;1.80;90.30
73572;DHT22;61854;48.510;-2.770;2022-12-10T08:48:06;1.80;90.10
73572;DHT22;61854;48.510;-2.770;2022-12-10T08:50:31;1.90;90.00
73572;DHT22;61854;48.510;-2.770;2022-12-10T08:52:57;2.00;89.80
73572;DHT22;61854;48.510;-2.770;2022-12-10T08:55:22;2.10;89.50
73572;DHT22;61854;48.510;-2.770;2022-12-10T08:57:48;2.20;89.40
73572;DHT22;61854;48.510;-2.770;2022-12-10T09:00:14;2.20;89.40
73572;DHT22;61854;48.510;-2.770;2022-12-10T09:02:40;2.30;89.70
73572;DHT22;61854;48.510;-2.770;2022-12-10T09:05:06;2.30;89.50
73572;DHT22;61854;48.510;-2.770;2022-12-10T09:07:32;2.40;89.40
73572;DHT22;61854;48.510;-2.770;2022-12-10T09:09:57;2.40;88.80
73572;DHT22;61854;48.510;-2.770;2022-12-10T09:12:23;2.50;88.80
73572;DHT22;61854;48.510;-2.770;2022-12-10T09:14:48;2.50;89.00
73572;DHT22;61854;48.510;-2.770;2022-12-10T09:17:14;2.50;88.50
73572;DHT22;61854;48.510;-2.770;2022-12-10T09:19:40;2.50;88.80
73572;DHT22;61854;48.510;-2.770;2022-12-10T09:22:05;2.60;89.10
73572;DHT22;61854;48.510;-2.770;2022-12-10T09:24:31;2.60;89.00
73572;DHT22;61854;48.510;-2.770;2022-12-10T09:26:57;2.60;89.00
73572;DHT22;61854;48.510;-2.770;2022-12-10T09:29:22;2.60;89.10
73572;DHT22;61854;48.510;-2.770;2022-12-10T09:31:51;2.70;88.80
73572;DHT22;61854;48.510;-2.770;2022-12-10T09:34:17;2.70;88.70
73572;DHT22;61854;48.510;-2.770;2022-12-10T09:36:43;2.70;88.30
73572;DHT22;61854;48.510;-2.770;2022-12-10T09:39:09;2.70;88.30
73572;DHT22;61854;48.510;-2.770;2022-12-10T09:50:42;2.60;88.30
73572;DHT22;61854;48.510;-2.770;2022-12-10T09:53:13;2.70;88.00
73572;DHT22;61854;48.510;-2.770;2022-12-10T09:55:44;2.70;88.30
73572;DHT22;61854;48.510;-2.770;2022-12-10T09:58:20;2.80;87.40
73572;DHT22;61854;48.510;-2.770;2022-12-10T10:00:58;2.90;87.40
73572;DHT22;61854;48.510;-2.770;2022-12-10T10:03:24;3.00;87.50
73572;DHT22;61854;48.510;-2.770;2022-12-10T10:05:52;3.00;87.20
73572;DHT22;61854;48.510;-2.770;2022-12-10T10:08:32;3.10;86.70
73572;DHT22;61854;48.510;-2.770;2022-12-10T10:11:03;3.20;87.00
73572;DHT22;61854;48.510;-2.770;2022-12-10T10:13:51;3.20;86.50
73572;DHT22;61854;48.510;-2.770;2022-12-10T10:16:43;3.30;86.90
73572;DHT22;61854;48.510;-2.770;2022-12-10T10:19:16;3.40;86.20
73572;DHT22;61854;48.510;-2.770;2022-12-10T10:21:45;3.50;86.70
73572;DHT22;61854;48.510;-2.770;2022-12-10T10:24:20;3.60;86.30
73572;DHT22;61854;48.510;-2.770;2022-12-10T10:26:47;3.60;85.50
73572;DHT22;61854;48.510;-2.770;2022-12-10T10:29:16;3.80;83.70
73572;DHT22;61854;48.510;-2.770;2022-12-10T10:31:43;3.80;83.20
73572;DHT22;61854;48.510;-2.770;2022-12-10T10:34:26;4.00;82.00
73572;DHT22;61854;48.510;-2.770;2022-12-10T10:37:00;4.20;90.00
73572;DHT22;61854;48.510;-2.770;2022-12-10T10:39:29;4.20;81.10
73572;DHT22;61854;48.510;-2.770;2022-12-10T10:41:58;4.30;81.60
73572;DHT22;61854;48.510;-2.770;2022-12-10T10:44:33;4.40;80.30
73572;DHT22;61854;48.510;-2.770;2022-12-10T10:47:00;4.40;79.70
73572;DHT22;61854;48.510;-2.770;2022-12-10T10:49:28;4.50;79.60
73572;DHT22;61854;48.510;-2.770;2022-12-10T10:52:05;4.60;79.30
73572;DHT22;61854;48.510;-2.770;2022-12-10T10:54:39;4.70;78.30
73572;DHT22;61854;48.510;-2.770;2022-12-10T10:57:25;4.70;78.30
73572;DHT22;61854;48.510;-2.770;2022-12-10T10:59:55;4.80;77.50
73572;DHT22;61854;48.510;-2.770;2022-12-10T11:02:32;4.80;77.00
73572;DHT22;61854;48.510;-2.770;2022-12-10T11:05:26;4.80;76.10
73572;DHT22;61854;48.510;-2.770;2022-12-10T11:08:00;4.90;76.60
73572;DHT22;61854;48.510;-2.770;2022-12-10T11:10:26;5.00;75.50
73572;DHT22;61854;48.510;-2.770;2022-12-10T11:15:36;5.10;75.20
73572;DHT22;61854;48.510;-2.770;2022-12-10T11:18:18;5.10;74.20
73572;DHT22;61854;48.510;-2.770;2022-12-10T11:23:45;5.10;73.90
73572;DHT22;61854;48.510;-2.770;2022-12-10T11:29:44;5.10;74.10
73572;DHT22;61854;48.510;-2.770;2022-12-10T11:42:45;5.20;74.10
73572;DHT22;61854;48.510;-2.770;2022-12-10T11:50:57;5.10;74.20
73572;DHT22;61854;48.510;-2.770;2022-12-10T11:53:49;5.10;74.10
73572;DHT22;61854;48.510;-2.770;2022-12-10T11:59:04;5.20;73.30
73572;DHT22;61854;48.510;-2.770;2022-12-10T12:01:55;5.30;74.20
73572;DHT22;61854;48.510;-2.770;2022-12-10T12:12:59;5.40;73.10
73572;DHT22;61854;48.510;-2.770;2022-12-10T12:15:32;5.40;73.60
73572;DHT22;61854;48.510;-2.770;2022-12-10T12:18:15;5.50;73.60
73572;DHT22;61854;48.510;-2.770;2022-12-10T12:21:08;5.60;73.20
73572;DHT22;61854;48.510;-2.770;2022-12-10T12:23:47;5.60;72.30
73572;DHT22;61854;48.510;-2.770;2022-12-10T12:26:31;5.50;72.50
73572;DHT22;61854;48.510;-2.770;2022-12-10T12:29:22;5.60;72.00
73572;DHT22;61854;48.510;-2.770;2022-12-10T12:35:02;5.50;72.20
73572;DHT22;61854;48.510;-2.770;2022-12-10T12:37:44;5.50;72.00
73572;DHT22;61854;48.510;-2.770;2022-12-10T12:40:15;5.40;72.20
73572;DHT22;61854;48.510;-2.770;2022-12-10T12:42:54;5.40;72.00
73572;DHT22;61854;48.510;-2.770;2022-12-10T12:48:22;5.40;72.60
73572;DHT22;61854;48.510;-2.770;2022-12-10T12:50:50;5.30;73.40
73572;DHT22;61854;48.510;-2.770;2022-12-10T12:53:21;5.40;73.80
73572;DHT22;61854;48.510;-2.770;2022-12-10T12:56:02;5.30;73.90
73572;DHT22;61854;48.510;-2.770;2022-12-10T12:58:49;5.40;73.90
73572;DHT22;61854;48.510;-2.770;2022-12-10T13:04:05;5.40;74.30
73572;DHT22;61854;48.510;-2.770;2022-12-10T13:06:37;5.50;74.40
73572;DHT22;61854;48.510;-2.770;2022-12-10T13:11:46;5.70;73.40
73572;DHT22;61854;48.510;-2.770;2022-12-10T13:14:34;5.80;72.50
73572;DHT22;61854;48.510;-2.770;2022-12-10T13:17:31;6.00;71.30
73572;DHT22;61854;48.510;-2.770;2022-12-10T13:19:53;6.10;70.70
73572;DHT22;61854;48.510;-2.770;2022-12-10T13:22:54;6.20;68.60
73572;DHT22;61854;48.510;-2.770;2022-12-10T13:25:38;6.30;68.50
73572;DHT22;61854;48.510;-2.770;2022-12-10T13:37:26;6.40;65.30
73572;DHT22;61854;48.510;-2.770;2022-12-10T13:40:14;6.50;64.20
73572;DHT22;61854;48.510;-2.770;2022-12-10T13:42:44;6.60;64.00
73572;DHT22;61854;48.510;-2.770;2022-12-10T13:45:32;6.60;63.70
73572;DHT22;61854;48.510;-2.770;2022-12-10T13:48:22;6.70;62.90
73572;DHT22;61854;48.510;-2.770;2022-12-10T13:53:29;7.10;61.50
73572;DHT22;61854;48.510;-2.770;2022-12-10T13:59:28;7.00;60.40
73572;DHT22;61854;48.510;-2.770;2022-12-10T14:07:56;6.60;61.20
73572;DHT22;61854;48.510;-2.770;2022-12-10T14:10:29;7.00;61.00
73572;DHT22;61854;48.510;-2.770;2022-12-10T14:12:55;7.60;59.60
73572;DHT22;61854;48.510;-2.770;2022-12-10T14:15:23;8.30;58.90
73572;DHT22;61854;48.510;-2.770;2022-12-10T14:17:52;8.80;57.90
73572;DHT22;61854;48.510;-2.770;2022-12-10T14:20:23;9.00;57.60
73572;DHT22;61854;48.510;-2.770;2022-12-10T14:22:52;9.00;57.40
73572;DHT22;61854;48.510;-2.770;2022-12-10T14:25:20;8.80;57.90
73572;DHT22;61854;48.510;-2.770;2022-12-10T14:27:50;8.50;59.00
73572;DHT22;61854;48.510;-2.770;2022-12-10T14:32:44;8.00;60.80
73572;DHT22;61854;48.510;-2.770;2022-12-10T14:35:25;8.00;61.40
73572;DHT22;61854;48.510;-2.770;2022-12-10T14:37:52;8.20;61.40
73572;DHT22;61854;48.510;-2.770;2022-12-10T14:40:25;8.50;60.50
73572;DHT22;61854;48.510;-2.770;2022-12-10T14:43:02;9.00;59.80
73572;DHT22;61854;48.510;-2.770;2022-12-10T14:45:38;9.40;58.50
73572;DHT22;61854;48.510;-2.770;2022-12-10T14:48:08;9.40;57.80
73572;DHT22;61854;48.510;-2.770;2022-12-10T14:50:37;9.20;58.00
73572;DHT22;61854;48.510;-2.770;2022-12-10T14:53:08;8.80;58.70
73572;DHT22;61854;48.510;-2.770;2022-12-10T14:55:37;8.60;58.70
73572;DHT22;61854;48.510;-2.770;2022-12-10T14:58:04;8.20;59.20
73572;DHT22;61854;48.510;-2.770;2022-12-10T15:00:31;8.10;60.30
73572;DHT22;61854;48.510;-2.770;2022-12-10T15:03:07;8.20;60.20
73572;DHT22;61854;48.510;-2.770;2022-12-10T15:05:34;8.50;59.00
73572;DHT22;61854;48.510;-2.770;2022-12-10T15:08:03;8.70;57.50
73572;DHT22;61854;48.510;-2.770;2022-12-10T15:10:44;8.70;57.40
73572;DHT22;61854;48.510;-2.770;2022-12-10T15:13:20;8.30;57.60
73572;DHT22;61854;48.510;-2.770;2022-12-10T15:15:51;7.60;59.40
73572;DHT22;61854;48.510;-2.770;2022-12-10T15:18:20;7.00;61.10
73572;DHT22;61854;48.510;-2.770;2022-12-10T15:20:51;6.50;63.00
73572;DHT22;61854;48.510;-2.770;2022-12-10T15:28:30;5.50;68.70
73572;DHT22;61854;48.510;-2.770;2022-12-10T15:33:53;5.10;70.60
73572;DHT22;61854;48.510;-2.770;2022-12-10T15:36:40;4.90;71.90
73572;DHT22;61854;48.510;-2.770;2022-12-10T15:39:26;4.90;73.00
73572;DHT22;61854;48.510;-2.770;2022-12-10T15:42:05;4.80;73.60
73572;DHT22;61854;48.510;-2.770;2022-12-10T15:44:36;4.70;73.90
73572;DHT22;61854;48.510;-2.770;2022-12-10T15:47:17;4.60;74.70
73572;DHT22;61854;48.510;-2.770;2022-12-10T15:49:44;4.50;75.20
73572;DHT22;61854;48.510;-2.770;2022-12-10T15:52:24;4.50;75.70
73572;DHT22;61854;48.510;-2.770;2022-12-10T15:54:52;4.40;76.20
73572;DHT22;61854;48.510;-2.770;2022-12-10T15:57:24;4.30;76.60
73572;DHT22;61854;48.510;-2.770;2022-12-10T15:59:52;4.30;76.90
73572;DHT22;61854;48.510;-2.770;2022-12-10T16:02:56;4.30;77.00
73572;DHT22;61854;48.510;-2.770;2022-12-10T16:05:25;4.30;77.50
73572;DHT22;61854;48.510;-2.770;2022-12-10T16:07:53;4.20;77.80
73572;DHT22;61854;48.510;-2.770;2022-12-10T16:10:21;4.10;78.30
73572;DHT22;61854;48.510;-2.770;2022-12-10T16:12:49;4.10;79.00
73572;DHT22;61854;48.510;-2.770;2022-12-10T16:15:20;4.00;79.50
73572;DHT22;61854;48.510;-2.770;2022-12-10T16:17:47;4.00;79.80
73572;DHT22;61854;48.510;-2.770;2022-12-10T16:22:47;3.80;80.60
73572;DHT22;61854;48.510;-2.770;2022-12-10T16:25:13;3.80;81.00
73572;DHT22;61854;48.510;-2.770;2022-12-10T16:27:39;3.70;81.50
73572;DHT22;61854;48.510;-2.770;2022-12-10T16:31:01;3.60;82.10
73572;DHT22;61854;48.510;-2.770;2022-12-10T16:33:27;3.60;82.70
73572;DHT22;61854;48.510;-2.770;2022-12-10T16:35:53;3.60;83.10
73572;DHT22;61854;48.510;-2.770;2022-12-10T16:38:19;3.60;83.20
73572;DHT22;61854;48.510;-2.770;2022-12-10T16:40:47;3.50;83.50
73572;DHT22;61854;48.510;-2.770;2022-12-10T16:43:21;3.50;83.80
73572;DHT22;61854;48.510;-2.770;2022-12-10T16:45:48;3.40;84.20
73572;DHT22;61854;48.510;-2.770;2022-12-10T16:48:13;3.40;84.60
73572;DHT22;61854;48.510;-2.770;2022-12-10T16:50:40;3.30;84.90
73572;DHT22;61854;48.510;-2.770;2022-12-10T16:53:16;3.30;85.20
73572;DHT22;61854;48.510;-2.770;2022-12-10T16:55:42;3.30;85.80
73572;DHT22;61854;48.510;-2.770;2022-12-10T16:58:10;3.20;86.10
73572;DHT22;61854;48.510;-2.770;2022-12-10T17:00:36;3.20;86.60
73572;DHT22;61854;48.510;-2.770;2022-12-10T17:03:02;3.20;86.90
73572;DHT22;61854;48.510;-2.770;2022-12-10T17:05:39;3.10;87.20
73572;DHT22;61854;48.510;-2.770;2022-12-10T17:08:07;3.10;87.80
73572;DHT22;61854;48.510;-2.770;2022-12-10T17:10:33;3.00;87.90
73572;DHT22;61854;48.510;-2.770;2022-12-10T17:13:20;3.00;88.30
73572;DHT22;61854;48.510;-2.770;2022-12-10T17:15:47;3.00;88.70
73572;DHT22;61854;48.510;-2.770;2022-12-10T17:18:15;3.00;89.30
73572;DHT22;61854;48.510;-2.770;2022-12-10T17:20:41;2.90;89.80
73572;DHT22;61854;48.510;-2.770;2022-12-10T17:23:07;2.90;90.00
73572;DHT22;61854;48.510;-2.770;2022-12-10T17:25:33;2.90;90.10
73572;DHT22;61854;48.510;-2.770;2022-12-10T17:27:58;2.80;90.10